sensor_id;sensor_type;location;lat;lon;timestamp;temperature;humidity
8882;DHT22;4477;48.736;9.176;2023-04-08T10:18:50;5.10;99.90
8882;DHT22;4477;48.736;9.176;2023-04-08T10:21:34;14.70;61.60
8882;DHT22;4477;48.736;9.176;2023-04-08T10:24:01;14.40;63.70
8882;DHT22;4477;48.736;9.176;2023-04-08T10:26:33;14.40;61.30
8882;DHT22;4477;48.736;9.176;2023-04-08T10:29:31;14.20;62.80
8882;DHT22;4477;48.736;9.176;2023-04-08T10:32:01;13.80;63.70
8882;DHT22;4477;48.736;9.176;2023-04-08T10:34:31;13.80;64.20
8882;DHT22;4477;48.736;9.176;2023-04-08T10:36:58;13.40;62.10
8882;DHT22;4477;48.736;9.176;2023-04-08T10:39:26;12.80;63.90
8882;DHT22;4477;48.736;9.176;2023-04-08T10:41:53;12.50;68.90
8882;DHT22;4477;48.736;9.176;2023-04-08T10:51:49;12.30;65.70
8882;DHT22;4477;48.736;9.176;2023-04-08T10:56:46;11.70;67.50
8882;DHT22;4477;48.736;9.176;2023-04-08T10:59:13;11.10;68.00
8882;DHT22;4477;48.736;9.176;2023-04-08T11:01:43;10.80;70.70
8882;DHT22;4477;48.736;9.176;2023-04-08T11:04:11;10.80;72.40
8882;DHT22;4477;48.736;9.176;2023-04-08T11:06:43;10.70;70.90
8882;DHT22;4477;48.736;9.176;2023-04-08T11:09:11;10.60;70.90
8882;DHT22;4477;48.736;9.176;2023-04-08T11:11:40;10.60;69.50
8882;DHT22;4477;48.736;9.176;2023-04-08T11:14:08;10.50;70.80
8882;DHT22;4477;48.736;9.176;2023-04-08T11:16:38;10.70;71.20
8882;DHT22;4477;48.736;9.176;2023-04-08T11:19:05;10.50;71.50
8882;DHT22;4477;48.736;9.176;2023-04-08T11:21:35;10.60;71.10
8882;DHT22;4477;48.736;9.176;2023-04-08T11:24:09;10.70;71.30
8882;DHT22;4477;48.736;9.176;2023-04-08T11:26:37;11.00;71.30
8882;DHT22;4477;48.736;9.176;2023-04-08T11:29:05;11.40;70.70
8882;DHT22;4477;48.736;9.176;2023-04-08T11:31:34;11.70;70.10
8882;DHT22;4477;48.736;9.176;2023-04-08T11:34:02;11.80;65.50
8882;DHT22;4477;48.736;9.176;2023-04-08T11:36:29;11.80;65.00
8882;DHT22;4477;48.736;9.176;2023-04-08T11:38:56;11.90;67.10
8882;DHT22;4477;48.736;9.176;2023-04-08T11:41:24;12.00;67.10
8882;DHT22;4477;48.736;9.176;2023-04-08T11:44:03;12.10;66.70
8882;DHT22;4477;48.736;9.176;2023-04-08T11:46:31;12.10;65.10
8882;DHT22;4477;48.736;9.176;2023-04-08T11:49:02;12.10;64.20
8882;DHT22;4477;48.736;9.176;2023-04-08T11:51:30;12.20;65.70
8882;DHT22;4477;48.736;9.176;2023-04-08T11:54:02;11.80;66.30
8882;DHT22;4477;48.736;9.176;2023-04-08T11:56:43;11.80;65.90
8882;DHT22;4477;48.736;9.176;2023-04-08T11:59:11;11.30;66.40
8882;DHT22;4477;48.736;9.176;2023-04-08T12:01:39;11.40;69.00
8882;DHT22;4477;48.736;9.176;2023-04-08T12:04:06;11.50;66.80
8882;DHT22;4477;48.736;9.176;2023-04-08T12:06:34;11.70;67.40
8882;DHT22;4477;48.736;9.176;2023-04-08T12:09:01;11.80;66.10
8882;DHT22;4477;48.736;9.176;2023-04-08T12:11:28;11.70;66.20
8882;DHT22;4477;48.736;9.176;2023-04-08T12:13:56;11.80;67.10
8882;DHT22;4477;48.736;9.176;2023-04-08T12:16:23;11.90;64.60
8882;DHT22;4477;48.736;9.176;2023-04-08T12:18:50;11.70;66.20
8882;DHT22;4477;48.736;9.176;2023-04-08T12:21:17;11.50;66.70
8882;DHT22;4477;48.736;9.176;2023-04-08T12:23:44;11.60;67.80
8882;DHT22;4477;48.736;9.176;2023-04-08T12:26:11;11.30;68.70
8882;DHT22;4477;48.736;9.176;2023-04-08T12:28:38;11.40;66.50
8882;DHT22;4477;48.736;9.176;2023-04-08T12:31:06;11.30;67.80
8882;DHT22;4477;48.736;9.176;2023-04-08T12:33:35;11.40;68.80
8882;DHT22;4477;48.736;9.176;2023-04-08T12:36:02;11.40;69.30
8882;DHT22;4477;48.736;9.176;2023-04-08T12:38:29;11.60;68.00
8882;DHT22;4477;48.736;9.176;2023-04-08T12:40:56;11.90;69.00
8882;DHT22;4477;48.736;9.176;2023-04-08T12:43:23;12.10;69.00
8882;DHT22;4477;48.736;9.176;2023-04-08T12:45:51;12.30;66.40
8882;DHT22;4477;48.736;9.176;2023-04-08T12:48:19;12.20;64.70
8882;DHT22;4477;48.736;9.176;2023-04-08T12:50:46;12.20;66.40
8882;DHT22;4477;48.736;9.176;2023-04-08T12:53:13;12.00;65.80
8882;DHT22;4477;48.736;9.176;2023-04-08T12:55:40;11.70;67.00
8882;DHT22;4477;48.736;9.176;2023-04-08T12:58:06;11.70;67.00
8882;DHT22;4477;48.736;9.176;2023-04-08T13:00:34;11.50;67.60
8882;DHT22;4477;48.736;9.176;2023-04-08T13:03:02;11.50;67.80
8882;DHT22;4477;48.736;9.176;2023-04-08T13:05:31;11.50;67.70
8882;DHT22;4477;48.736;9.176;2023-04-08T13:08:00;11.30;67.30
8882;DHT22;4477;48.736;9.176;2023-04-08T13:10:27;11.10;68.50
8882;DHT22;4477;48.736;9.176;2023-04-08T13:12:58;10.80;69.10
8882;DHT22;4477;48.736;9.176;2023-04-08T13:15:25;10.70;71.00
8882;DHT22;4477;48.736;9.176;2023-04-08T13:17:52;10.60;69.80
8882;DHT22;4477;48.736;9.176;2023-04-08T13:20:19;10.40;69.80
8882;DHT22;4477;48.736;9.176;2023-04-08T13:22:51;10.20;71.60
8882;DHT22;4477;48.736;9.176;2023-04-08T13:25:18;10.10;72.20
8882;DHT22;4477;48.736;9.176;2023-04-08T13:27:45;10.10;72.10
8882;DHT22;4477;48.736;9.176;2023-04-08T13:30:12;10.10;74.20
8882;DHT22;4477;48.736;9.176;2023-04-08T13:32:39;10.00;72.70
8882;DHT22;4477;48.736;9.176;2023-04-08T13:35:07;9.90;74.50
8882;DHT22;4477;48.736;9.176;2023-04-08T13:37:33;9.80;74.80
8882;DHT22;4477;48.736;9.176;2023-04-08T13:40:02;9.90;75.20
8882;DHT22;4477;48.736;9.176;2023-04-08T13:42:30;10.00;74.90
8882;DHT22;4477;48.736;9.176;2023-04-08T13:44:57;10.10;73.30
8882;DHT22;4477;48.736;9.176;2023-04-08T13:47:26;10.10;72.80
8882;DHT22;4477;48.736;9.176;2023-04-08T13:49:55;10.20;73.50
8882;DHT22;4477;48.736;9.176;2023-04-08T13:52:22;10.20;72.60
8882;DHT22;4477;48.736;9.176;2023-04-08T13:54:50;10.30;73.30
8882;DHT22;4477;48.736;9.176;2023-04-08T13:57:19;10.40;72.80
8882;DHT22;4477;48.736;9.176;2023-04-08T13:59:46;10.40;72.10
8882;DHT22;4477;48.736;9.176;2023-04-08T14:02:13;10.60;72.20
8882;DHT22;4477;48.736;9.176;2023-04-08T14:04:40;10.70;72.90
8882;DHT22;4477;48.736;9.176;2023-04-08T14:07:07;10.70;72.90
8882;DHT22;4477;48.736;9.176;2023-04-08T14:09:34;10.70;73.00
8882;DHT22;4477;48.736;9.176;2023-04-08T14:12:01;11.00;72.00
8882;DHT22;4477;48.736;9.176;2023-04-08T14:14:29;11.00;71.40
8882;DHT22;4477;48.736;9.176;2023-04-08T14:16:56;11.20;71.40
8882;DHT22;4477;48.736;9.176;2023-04-08T14:19:23;11.30;70.70
8882;DHT22;4477;48.736;9.176;2023-04-08T14:21:51;11.40;71.60
8882;DHT22;4477;48.736;9.176;2023-04-08T14:24:18;11.40;71.60
8882;DHT22;4477;48.736;9.176;2023-04-08T14:26:47;11.60;72.30
8882;DHT22;4477;48.736;9.176;2023-04-08T14:29:13;11.90;70.00
8882;DHT22;4477;48.736;9.176;2023-04-08T14:31:42;11.80;69.00
8882;DHT22;4477;48.736;9.176;2023-04-08T14:34:09;11.70;71.70
8882;DHT22;4477;48.736;9.176;2023-04-08T14:36:36;11.80;68.80
8882;DHT22;4477;48.736;9.176;2023-04-08T14:39:03;11.90;70.40
8882;DHT22;4477;48.736;9.176;2023-04-08T14:41:32;11.90;68.60
8882;DHT22;4477;48.736;9.176;2023-04-08T14:43:59;11.90;71.20
8882;DHT22;4477;48.736;9.176;2023-04-08T14:46:27;11.80;69.60
8882;DHT22;4477;48.736;9.176;2023-04-08T14:48:56;11.50;70.60
8882;DHT22;4477;48.736;9.176;2023-04-08T14:51:23;11.40;72.10
8882;DHT22;4477;48.736;9.176;2023-04-08T14:53:50;11.20;71.90
8882;DHT22;4477;48.736;9.176;2023-04-08T14:56:17;10.80;72.80
8882;DHT22;4477;48.736;9.176;2023-04-08T14:58:44;10.90;73.50
8882;DHT22;4477;48.736;9.176;2023-04-08T15:01:11;10.90;73.30
8882;DHT22;4477;48.736;9.176;2023-04-08T15:03:37;10.80;72.30
8882;DHT22;4477;48.736;9.176;2023-04-08T15:06:06;10.70;71.90
8882;DHT22;4477;48.736;9.176;2023-04-08T15:08:33;10.50;73.00
8882;DHT22;4477;48.736;9.176;2023-04-08T15:11:00;10.40;72.90
8882;DHT22;4477;48.736;9.176;2023-04-08T15:13:27;10.50;73.70
8882;DHT22;4477;48.736;9.176;2023-04-08T15:15:54;10.30;73.60
8882;DHT22;4477;48.736;9.176;2023-04-08T15:18:23;10.20;73.30
8882;DHT22;4477;48.736;9.176;2023-04-08T15:20:50;10.10;73.00
8882;DHT22;4477;48.736;9.176;2023-04-08T15:23:18;10.30;74.40
8882;DHT22;4477;48.736;9.176;2023-04-08T15:25:45;10.20;73.10
8882;DHT22;4477;48.736;9.176;2023-04-08T15:28:13;10.30;73.10
8882;DHT22;4477;48.736;9.176;2023-04-08T15:30:40;10.40;72.60
8882;DHT22;4477;48.736;9.176;2023-04-08T15:33:06;10.50;72.50
8882;DHT22;4477;48.736;9.176;2023-04-08T15:35:33;10.80;70.90
8882;DHT22;4477;48.736;9.176;2023-04-08T15:38:03;11.00;70.60
8882;DHT22;4477;48.736;9.176;2023-04-08T15:40:33;11.10;69.50
8882;DHT22;4477;48.736;9.176;2023-04-08T15:43:01;11.00;70.00
8882;DHT22;4477;48.736;9.176;2023-04-08T15:45:28;10.70;71.20
8882;DHT22;4477;48.736;9.176;2023-04-08T15:47:56;10.40;71.90
8882;DHT22;4477;48.736;9.176;2023-04-08T15:50:27;10.40;72.80
8882;DHT22;4477;48.736;9.176;2023-04-08T15:52:54;10.40;73.00
8882;DHT22;4477;48.736;9.176;2023-04-08T15:55:21;10.40;73.70
8882;DHT22;4477;48.736;9.176;2023-04-08T15:57:51;10.40;71.50
8882;DHT22;4477;48.736;9.176;2023-04-08T16:00:21;10.50;72.10
8882;DHT22;4477;48.736;9.176;2023-04-08T16:02:48;10.50;72.40
8882;DHT22;4477;48.736;9.176;2023-04-08T16:05:15;10.20;73.10
8882;DHT22;4477;48.736;9.176;2023-04-08T16:07:42;10.10;74.10
8882;DHT22;4477;48.736;9.176;2023-04-08T16:10:09;9.70;77.20
8882;DHT22;4477;48.736;9.176;2023-04-08T16:12:36;9.70;78.20
8882;DHT22;4477;48.736;9.176;2023-04-08T16:15:12;9.70;78.30
8882;DHT22;4477;48.736;9.176;2023-04-08T16:17:39;9.40;77.60
8882;DHT22;4477;48.736;9.176;2023-04-08T16:20:06;9.20;79.90
8882;DHT22;4477;48.736;9.176;2023-04-08T16:22:33;9.00;80.60
8882;DHT22;4477;48.736;9.176;2023-04-08T16:25:01;9.00;81.30
8882;DHT22;4477;48.736;9.176;2023-04-08T16:27:28;8.90;80.70
8882;DHT22;4477;48.736;9.176;2023-04-08T16:29:54;8.90;81.40
8882;DHT22;4477;48.736;9.176;2023-04-08T16:32:24;8.90;82.90
8882;DHT22;4477;48.736;9.176;2023-04-08T16:34:53;9.00;81.50
8882;DHT22;4477;48.736;9.176;2023-04-08T16:37:20;9.00;81.60
8882;DHT22;4477;48.736;9.176;2023-04-08T16:39:49;8.90;82.00
8882;DHT22;4477;48.736;9.176;2023-04-08T16:42:17;9.00;82.00
8882;DHT22;4477;48.736;9.176;2023-04-08T16:44:44;8.90;81.10
8882;DHT22;4477;48.736;9.176;2023-04-08T16:47:12;8.80;81.60
8882;DHT22;4477;48.736;9.176;2023-04-08T16:49:40;8.70;82.00
8882;DHT22;4477;48.736;9.176;2023-04-08T16:52:07;8.60;82.60
8882;DHT22;4477;48.736;9.176;2023-04-08T16:54:34;8.60;82.80
8882;DHT22;4477;48.736;9.176;2023-04-08T16:57:01;8.60;83.00
8882;DHT22;4477;48.736;9.176;2023-04-08T16:59:28;8.60;83.10
8882;DHT22;4477;48.736;9.176;2023-04-08T17:01:58;8.50;83.60
8882;DHT22;4477;48.736;9.176;2023-04-08T17:04:25;8.40;84.40
8882;DHT22;4477;48.736;9.176;2023-04-08T17:06:54;8.30;85.50
8882;DHT22;4477;48.736;9.176;2023-04-08T17:09:21;8.20;86.30
8882;DHT22;4477;48.736;9.176;2023-04-08T17:11:48;8.10;87.20
8882;DHT22;4477;48.736;9.176;2023-04-08T17:14:15;8.00;87.40
8882;DHT22;4477;48.736;9.176;2023-04-08T17:16:42;8.00;87.90
8882;DHT22;4477;48.736;9.176;2023-04-08T17:19:08;7.90;88.10
8882;DHT22;4477;48.736;9.176;2023-04-08T17:21:35;7.80;88.60
8882;DHT22;4477;48.736;9.176;2023-04-08T17:24:07;7.80;89.40
8882;DHT22;4477;48.736;9.176;2023-04-08T17:26:34;7.80;89.70
8882;DHT22;4477;48.736;9.176;2023-04-08T17:29:00;7.70;89.70
8882;DHT22;4477;48.736;9.176;2023-04-08T17:31:27;7.60;90.60
8882;DHT22;4477;48.736;9.176;2023-04-08T17:33:54;7.60;91.20
8882;DHT22;4477;48.736;9.176;2023-04-08T17:36:21;7.60;91.50
8882;DHT22;4477;48.736;9.176;2023-04-08T17:38:48;7.50;91.30
8882;DHT22;4477;48.736;9.176;2023-04-08T17:41:18;7.50;91.40
8882;DHT22;4477;48.736;9.176;2023-04-08T17:43:45;7.40;91.30
8882;DHT22;4477;48.736;9.176;2023-04-08T17:46:12;7.40;91.20
8882;DHT22;4477;48.736;9.176;2023-04-08T17:48:39;7.40;91.30
8882;DHT22;4477;48.736;9.176;2023-04-08T17:51:05;7.30;91.60
8882;DHT22;4477;48.736;9.176;2023-04-08T17:53:33;7.40;91.70
8882;DHT22;4477;48.736;9.176;2023-04-08T17:56:01;7.30;92.10
8882;DHT22;4477;48.736;9.176;2023-04-08T17:58:29;7.20;92.00
8882;DHT22;4477;48.736;9.176;2023-04-08T18:00:57;7.10;92.30
8882;DHT22;4477;48.736;9.176;2023-04-08T18:03:23;7.10;92.20
8882;DHT22;4477;48.736;9.176;2023-04-08T18:05:51;7.10;92.40
8882;DHT22;4477;48.736;9.176;2023-04-08T18:08:19;7.00;92.80
8882;DHT22;4477;48.736;9.176;2023-04-08T18:10:46;7.00;92.90
8882;DHT22;4477;48.736;9.176;2023-04-08T18:13:15;7.00;93.00
8882;DHT22;4477;48.736;9.176;2023-04-08T18:15:43;6.90;93.20
8882;DHT22;4477;48.736;9.176;2023-04-08T18:18:12;6.80;93.40
8882;DHT22;4477;48.736;9.176;2023-04-08T18:20:43;6.80;93.80
8882;DHT22;4477;48.736;9.176;2023-04-08T18:23:10;6.70;93.80
8882;DHT22;4477;48.736;9.176;2023-04-08T18:25:37;6.50;94.00
8882;DHT22;4477;48.736;9.176;2023-04-08T18:28:06;6.50;94.60
8882;DHT22;4477;48.736;9.176;2023-04-08T18:30:33;6.40;95.20
8882;DHT22;4477;48.736;9.176;2023-04-08T18:33:01;6.30;95.60
8882;DHT22;4477;48.736;9.176;2023-04-08T18:35:28;6.30;96.80
8882;DHT22;4477;48.736;9.176;2023-04-08T18:37:55;6.20;97.70
8882;DHT22;4477;48.736;9.176;2023-04-08T18:40:23;6.20;98.10
8882;DHT22;4477;48.736;9.176;2023-04-08T18:42:51;6.20;98.60
8882;DHT22;4477;48.736;9.176;2023-04-08T18:45:17;6.20;98.80
8882;DHT22;4477;48.736;9.176;2023-04-08T18:47:44;6.30;98.60
8882;DHT22;4477;48.736;9.176;2023-04-08T18:50:15;6.30;98.40
8882;DHT22;4477;48.736;9.176;2023-04-08T18:52:42;6.40;98.30
8882;DHT22;4477;48.736;9.176;2023-04-08T18:55:09;6.40;98.20
8882;DHT22;4477;48.736;9.176;2023-04-08T18:57:36;6.40;98.50
8882;DHT22;4477;48.736;9.176;2023-04-08T19:00:04;6.40;98.70
8882;DHT22;4477;48.736;9.176;2023-04-08T19:02:31;6.40;98.90
8882;DHT22;4477;48.736;9.176;2023-04-08T19:04:58;6.40;99.00
8882;DHT22;4477;48.736;9.176;2023-04-08T19:07:28;6.40;99.00
8882;DHT22;4477;48.736;9.176;2023-04-08T19:09:55;6.40;99.00
8882;DHT22;4477;48.736;9.176;2023-04-08T19:12:23;6.40;98.90
8882;DHT22;4477;48.736;9.176;2023-04-08T19:14:50;6.40;98.90
8882;DHT22;4477;48.736;9.176;2023-04-08T19:17:17;6.40;98.90
8882;DHT22;4477;48.736;9.176;2023-04-08T19:19:44;6.40;99.00
8882;DHT22;4477;48.736;9.176;2023-04-08T19:22:11;6.40;98.90
8882;DHT22;4477;48.736;9.176;2023-04-08T19:24:39;6.40;98.90
8882;DHT22;4477;48.736;9.176;2023-04-08T19:27:06;6.40;99.20
8882;DHT22;4477;48.736;9.176;2023-04-08T19:29:33;6.40;99.40
8882;DHT22;4477;48.736;9.176;2023-04-08T19:32:00;6.40;99.80
8882;DHT22;4477;48.736;9.176;2023-04-08T19:34:27;6.40;99.90
8882;DHT22;4477;48.736;9.176;2023-04-08T19:36:54;6.30;99.90
8882;DHT22;4477;48.736;9.176;2023-04-08T19:39:24;6.30;99.90
8882;DHT22;4477;48.736;9.176;2023-04-08T19:41:52;6.30;99.90
8882;DHT22;4477;48.736;9.176;2023-04-08T19:44:19;6.30;99.90
8882;DHT22;4477;48.736;9.176;2023-04-08T19:46:46;6.20;99.90
8882;DHT22;4477;48.736;9.176;2023-04-08T19:49:13;6.30;99.90
8882;DHT22;4477;48.736;9.176;2023-04-08T19:51:40;6.30;99.90
8882;DHT22;4477;48.736;9.176;2023-04-08T19:54:07;6.20;99.90
8882;DHT22;4477;48.736;9.176;2023-04-08T19:56:35;6.30;99.90
8882;DHT22;4477;48.736;9.176;2023-04-08T19:59:04;6.20;99.90
8882;DHT22;4477;48.736;9.176;2023-04-08T20:01:31;6.20;99.90
8882;DHT22;4477;48.736;9.176;2023-04-08T20:04:01;6.20;99.90
8882;DHT22;4477;48.736;9.176;2023-04-08T20:06:31;6.20;99.90
8882;DHT22;4477;48.736;9.176;2023-04-08T20:08:59;6.10;99.90
8882;DHT22;4477;48.736;9.176;2023-04-08T20:11:29;6.20;99.90
8882;DHT22;4477;48.736;9.176;2023-04-08T20:13:56;6.10;99.90
8882;DHT22;4477;48.736;9.176;2023-04-08T20:16:25;6.20;99.90
8882;DHT22;4477;48.736;9.176;2023-04-08T20:18:54;6.20;99.90
8882;DHT22;4477;48.736;9.176;2023-04-08T20:21:21;6.30;99.90
8882;DHT22;4477;48.736;9.176;2023-04-08T20:23:48;6.20;99.90
8882;DHT22;4477;48.736;9.176;2023-04-08T20:26:16;6.30;99.90
8882;DHT22;4477;48.736;9.176;2023-04-08T20:28:43;6.20;99.90
8882;DHT22;4477;48.736;9.176;2023-04-08T20:31:10;6.20;99.90
8882;DHT22;4477;48.736;9.176;2023-04-08T20:33:39;6.20;99.90
8882;DHT22;4477;48.736;9.176;2023-04-08T20:36:08;6.20;99.90
8882;DHT22;4477;48.736;9.176;2023-04-08T20:38:36;6.20;99.90
8882;DHT22;4477;48.736;9.176;2023-04-08T20:41:03;6.10;99.90
8882;DHT22;4477;48.736;9.176;2023-04-08T20:43:31;6.10;99.90
8882;DHT22;4477;48.736;9.176;2023-04-08T20:45:58;6.20;99.90
8882;DHT22;4477;48.736;9.176;2023-04-08T20:48:27;6.10;99.90
8882;DHT22;4477;48.736;9.176;2023-04-08T20:50:56;6.10;99.90
8882;DHT22;4477;48.736;9.176;2023-04-08T20:53:23;6.10;99.90
8882;DHT22;4477;48.736;9.176;2023-04-08T20:55:50;6.00;99.90
8882;DHT22;4477;48.736;9.176;2023-04-08T20:58:17;6.00;99.90
8882;DHT22;4477;48.736;9.176;2023-04-08T21:00:44;6.00;99.90
8882;DHT22;4477;48.736;9.176;2023-04-08T21:03:12;5.90;99.90
8882;DHT22;4477;48.736;9.176;2023-04-08T21:05:39;5.90;99.90
8882;DHT22;4477;48.736;9.176;2023-04-08T21:10:36;5.80;99.90
8882;DHT22;4477;48.736;9.176;2023-04-08T21:13:03;5.60;99.90
8882;DHT22;4477;48.736;9.176;2023-04-08T21:15:30;5.40;99.90
8882;DHT22;4477;48.736;9.176;2023-04-08T21:17:58;5.30;99.90
8882;DHT22;4477;48.736;9.176;2023-04-08T21:20:25;5.20;99.90
8882;DHT22;4477;48.736;9.176;2023-04-08T21:22:52;5.10;99.90
8882;DHT22;4477;48.736;9.176;2023-04-08T21:25:20;5.00;99.90
8882;DHT22;4477;48.736;9.176;2023-04-08T21:27:47;4.80;99.90
8882;DHT22;4477;48.736;9.176;2023-04-08T21:30:14;4.80;99.90
